Spring Mountain Youth Camp, Nevada Weather observations

Data are for 60 minute period ending at time listed.
 Day   Time   Solar   Ave.   Ave.  Ave.  Vector  Max.   Baro.   Total    
  of    of     Rad.   Air    Rel.  Wind   Wind   Wind  Press.  Precip.   
Year   Day            Temp.  Hum.  Speed  Dir.   Gust                    
2017   (PST)  Kw/m2    F      %     mph   deg.    mph    mb.     in.     
-------------------------------------------------------------------------
  83   17:00   0.35   45.7    29   13.1   167    22.6   791.6    0.00 
  83   18:00   0.03   42.3    34   10.4   161    18.3   791.3    0.00 
  83   19:00   0.00   41.1    46    7.9   154    18.5   791.2    0.00 
  83   20:00   0.00   40.5    50    8.2   141    19.6   791.2    0.00 
  83   21:00   0.00   40.4    52   12.2   159    20.5   791.1    0.00 
  83   22:00   0.00   39.8    50   14.0   161    24.3   790.9    0.00 
  83   23:00   0.00   39.8    48   11.7   161    21.5   790.6    0.00 
  84    0:00   0.00   40.7    50   10.8   166    25.9   790.1    0.01 
  84    1:00   0.00   39.8    51    5.0   166    23.5   789.7    0.00 
  84    2:00   0.00   40.5    52    6.9   191    24.8   789.2    0.00 
  84    3:00   0.00   39.9    63   11.8   188    34.6   788.5    0.00 
  84    4:00   0.00   38.4    65    6.8   118    21.5   787.8    0.00 
  84    5:00   0.00   36.8    70   12.3   180    35.2   787.5    0.00 
  84    6:00   0.00   33.0    85    4.6    32    18.7   787.2    0.00 
  84    7:00   0.04   31.4    93    3.8    29    10.6   787.5    0.00 
  84    8:00   0.19   32.8    89    3.5   172    11.1   787.6    0.00 
  84    9:00   0.36   34.3    80    5.2   155    16.3   787.7    0.00 
  84   10:00   0.69   38.1    62    5.8   153    15.1   787.6    0.00 
  84   11:00   0.72   40.6    57    4.8   160    12.8   787.9    0.00 
  84   12:00   0.75   41.9    59    4.4   157    12.2   788.1    0.00 
  84   13:00   0.73   42.2    55    4.0   157    11.5   788.1    0.00 
  84   14:00   0.61   42.2    50    4.6   160    12.9   787.9    0.00 
  84   15:00   0.41   40.1    54    4.4   171    13.0   787.9    0.00 
  84   16:00   0.47   41.6    52    3.5   192    11.1   788.0    0.00 

Return to Spring Mountain Youth Camp graphs page.


Western Regional Climate Center,wrcc@dri.edu